sensor_id;sensor_type;location;lat;lon;timestamp;temperature;humidity
33931;DHT22;20215;53.130;6.408;2022-12-15T00:02:02;9.00;61.90
33931;DHT22;20215;53.130;6.408;2022-12-15T00:04:47;9.00;61.90
33931;DHT22;20215;53.130;6.408;2022-12-15T00:07:32;8.90;61.80
33931;DHT22;20215;53.130;6.408;2022-12-15T00:10:16;8.90;62.50
33931;DHT22;20215;53.130;6.408;2022-12-15T00:13:00;8.90;61.90
33931;DHT22;20215;53.130;6.408;2022-12-15T00:15:46;8.90;62.00
33931;DHT22;20215;53.130;6.408;2022-12-15T00:18:30;8.90;62.10
33931;DHT22;20215;53.130;6.408;2022-12-15T00:21:14;8.90;62.10
33931;DHT22;20215;53.130;6.408;2022-12-15T00:23:58;8.90;61.80
33931;DHT22;20215;53.130;6.408;2022-12-15T00:26:42;8.80;61.90
33931;DHT22;20215;53.130;6.408;2022-12-15T00:29:26;8.80;62.00
33931;DHT22;20215;53.130;6.408;2022-12-15T00:32:10;8.90;62.20
33931;DHT22;20215;53.130;6.408;2022-12-15T00:34:54;8.80;62.10
33931;DHT22;20215;53.130;6.408;2022-12-15T00:37:38;8.80;62.00
33931;DHT22;20215;53.130;6.408;2022-12-15T00:40:22;8.80;62.10
33931;DHT22;20215;53.130;6.408;2022-12-15T00:42:48;8.80;62.20
33931;DHT22;20215;53.130;6.408;2022-12-15T00:45:13;8.80;62.20
33931;DHT22;20215;53.130;6.408;2022-12-15T00:47:39;8.80;62.10
33931;DHT22;20215;53.130;6.408;2022-12-15T00:50:05;8.80;62.20
33931;DHT22;20215;53.130;6.408;2022-12-15T00:52:49;8.80;62.00
33931;DHT22;20215;53.130;6.408;2022-12-15T00:55:33;8.80;62.00
33931;DHT22;20215;53.130;6.408;2022-12-15T00:58:17;8.70;62.10
33931;DHT22;20215;53.130;6.408;2022-12-15T01:01:06;8.70;62.20
33931;DHT22;20215;53.130;6.408;2022-12-15T01:03:50;8.70;62.20
33931;DHT22;20215;53.130;6.408;2022-12-15T01:06:34;8.70;62.20
33931;DHT22;20215;53.130;6.408;2022-12-15T01:09:18;8.70;62.20
33931;DHT22;20215;53.130;6.408;2022-12-15T01:12:03;8.70;62.20
33931;DHT22;20215;53.130;6.408;2022-12-15T01:14:47;8.70;62.30
33931;DHT22;20215;53.130;6.408;2022-12-15T01:17:30;8.70;62.30
33931;DHT22;20215;53.130;6.408;2022-12-15T01:20:15;8.70;62.20
33931;DHT22;20215;53.130;6.408;2022-12-15T01:22:46;8.60;62.20
33931;DHT22;20215;53.130;6.408;2022-12-15T01:25:14;8.60;62.20
33931;DHT22;20215;53.130;6.408;2022-12-15T01:27:40;8.60;62.20
33931;DHT22;20215;53.130;6.408;2022-12-15T01:30:07;8.60;62.30
33931;DHT22;20215;53.130;6.408;2022-12-15T01:32:33;8.70;62.30
33931;DHT22;20215;53.130;6.408;2022-12-15T01:34:59;8.70;62.30
33931;DHT22;20215;53.130;6.408;2022-12-15T01:37:24;8.60;62.30
33931;DHT22;20215;53.130;6.408;2022-12-15T01:39:50;8.60;62.20
33931;DHT22;20215;53.130;6.408;2022-12-15T01:42:35;8.60;62.30
33931;DHT22;20215;53.130;6.408;2022-12-15T01:47:51;8.60;62.20
33931;DHT22;20215;53.130;6.408;2022-12-15T01:50:18;8.60;62.20
33931;DHT22;20215;53.130;6.408;2022-12-15T01:52:45;8.70;62.20
33931;DHT22;20215;53.130;6.408;2022-12-15T01:55:11;8.60;62.30
33931;DHT22;20215;53.130;6.408;2022-12-15T01:57:38;8.60;62.30
33931;DHT22;20215;53.130;6.408;2022-12-15T02:00:06;8.60;62.30
33931;DHT22;20215;53.130;6.408;2022-12-15T02:02:34;8.60;62.40
33931;DHT22;20215;53.130;6.408;2022-12-15T02:05:02;8.60;62.50
33931;DHT22;20215;53.130;6.408;2022-12-15T02:07:28;8.60;62.40
33931;DHT22;20215;53.130;6.408;2022-12-15T02:09:56;8.60;62.50
33931;DHT22;20215;53.130;6.408;2022-12-15T02:17:59;8.60;62.40
33931;DHT22;20215;53.130;6.408;2022-12-15T02:20:40;8.60;62.50
33931;DHT22;20215;53.130;6.408;2022-12-15T02:23:43;8.60;62.60
33931;DHT22;20215;53.130;6.408;2022-12-15T02:32:03;8.60;62.80
33931;DHT22;20215;53.130;6.408;2022-12-15T02:34:52;8.60;62.80
33931;DHT22;20215;53.130;6.408;2022-12-15T02:37:36;8.60;62.70
33931;DHT22;20215;53.130;6.408;2022-12-15T02:40:05;8.60;62.70
33931;DHT22;20215;53.130;6.408;2022-12-15T02:42:32;8.60;63.20
33931;DHT22;20215;53.130;6.408;2022-12-15T02:45:05;8.60;62.70
33931;DHT22;20215;53.130;6.408;2022-12-15T02:48:09;8.60;63.30
33931;DHT22;20215;53.130;6.408;2022-12-15T02:51:12;8.60;62.70
33931;DHT22;20215;53.130;6.408;2022-12-15T02:59:18;8.50;62.60
33931;DHT22;20215;53.130;6.408;2022-12-15T03:01:58;8.50;63.20
33931;DHT22;20215;53.130;6.408;2022-12-15T03:04:25;8.50;62.70
33931;DHT22;20215;53.130;6.408;2022-12-15T03:07:03;8.50;62.70
33931;DHT22;20215;53.130;6.408;2022-12-15T03:09:29;8.50;62.60
33931;DHT22;20215;53.130;6.408;2022-12-15T03:11:55;8.50;62.70
33931;DHT22;20215;53.130;6.408;2022-12-15T03:14:21;8.50;62.70
33931;DHT22;20215;53.130;6.408;2022-12-15T03:16:46;8.50;62.70
33931;DHT22;20215;53.130;6.408;2022-12-15T03:19:12;8.50;62.70
33931;DHT22;20215;53.130;6.408;2022-12-15T03:21:37;8.50;62.70
33931;DHT22;20215;53.130;6.408;2022-12-15T03:24:03;8.50;62.70
33931;DHT22;20215;53.130;6.408;2022-12-15T03:26:29;8.50;63.00
33931;DHT22;20215;53.130;6.408;2022-12-15T03:28:54;8.50;62.90
33931;DHT22;20215;53.130;6.408;2022-12-15T03:31:20;8.50;62.80
33931;DHT22;20215;53.130;6.408;2022-12-15T03:33:45;8.50;62.80
33931;DHT22;20215;53.130;6.408;2022-12-15T03:36:11;8.50;62.90
33931;DHT22;20215;53.130;6.408;2022-12-15T03:38:36;8.50;62.80
33931;DHT22;20215;53.130;6.408;2022-12-15T03:41:02;8.40;62.80
33931;DHT22;20215;53.130;6.408;2022-12-15T03:43:28;8.50;62.70
33931;DHT22;20215;53.130;6.408;2022-12-15T03:45:53;8.40;62.80
33931;DHT22;20215;53.130;6.408;2022-12-15T03:48:19;8.40;62.70
33931;DHT22;20215;53.130;6.408;2022-12-15T03:50:46;8.40;62.60
33931;DHT22;20215;53.130;6.408;2022-12-15T03:53:12;8.40;62.70
33931;DHT22;20215;53.130;6.408;2022-12-15T03:55:38;8.40;62.70
33931;DHT22;20215;53.130;6.408;2022-12-15T03:58:03;8.40;62.60
33931;DHT22;20215;53.130;6.408;2022-12-15T04:00:29;8.40;62.70
33931;DHT22;20215;53.130;6.408;2022-12-15T04:02:54;8.40;62.60
33931;DHT22;20215;53.130;6.408;2022-12-15T04:05:24;8.30;62.70
33931;DHT22;20215;53.130;6.408;2022-12-15T04:07:51;8.30;62.80
33931;DHT22;20215;53.130;6.408;2022-12-15T04:10:17;8.30;62.60
33931;DHT22;20215;53.130;6.408;2022-12-15T04:12:42;8.30;62.70
33931;DHT22;20215;53.130;6.408;2022-12-15T04:15:09;8.30;62.80
33931;DHT22;20215;53.130;6.408;2022-12-15T04:17:35;8.30;62.80
33931;DHT22;20215;53.130;6.408;2022-12-15T04:20:01;8.30;62.90
33931;DHT22;20215;53.130;6.408;2022-12-15T04:22:38;8.30;62.90
33931;DHT22;20215;53.130;6.408;2022-12-15T04:25:06;8.30;62.90
33931;DHT22;20215;53.130;6.408;2022-12-15T04:27:51;8.30;62.90
33931;DHT22;20215;53.130;6.408;2022-12-15T04:30:35;8.30;62.90
33931;DHT22;20215;53.130;6.408;2022-12-15T04:33:20;8.30;63.00
33931;DHT22;20215;53.130;6.408;2022-12-15T04:36:06;8.20;62.90
33931;DHT22;20215;53.130;6.408;2022-12-15T04:38:52;8.20;63.00
33931;DHT22;20215;53.130;6.408;2022-12-15T04:41:36;8.20;62.90
33931;DHT22;20215;53.130;6.408;2022-12-15T04:44:20;8.20;63.20
33931;DHT22;20215;53.130;6.408;2022-12-15T04:47:05;8.20;63.20
33931;DHT22;20215;53.130;6.408;2022-12-15T04:49:49;8.20;63.30
33931;DHT22;20215;53.130;6.408;2022-12-15T04:52:33;8.20;63.30
33931;DHT22;20215;53.130;6.408;2022-12-15T04:55:17;8.10;63.20
33931;DHT22;20215;53.130;6.408;2022-12-15T04:58:06;8.10;63.20
33931;DHT22;20215;53.130;6.408;2022-12-15T05:00:50;8.10;63.20
33931;DHT22;20215;53.130;6.408;2022-12-15T05:03:34;8.10;63.30
33931;DHT22;20215;53.130;6.408;2022-12-15T05:06:18;8.10;63.30
33931;DHT22;20215;53.130;6.408;2022-12-15T05:09:03;8.10;63.30
33931;DHT22;20215;53.130;6.408;2022-12-15T05:11:47;8.10;63.40
33931;DHT22;20215;53.130;6.408;2022-12-15T05:14:31;8.00;63.30
33931;DHT22;20215;53.130;6.408;2022-12-15T05:17:15;8.00;63.30
33931;DHT22;20215;53.130;6.408;2022-12-15T05:20:00;8.00;63.30
33931;DHT22;20215;53.130;6.408;2022-12-15T05:22:44;8.00;63.40
33931;DHT22;20215;53.130;6.408;2022-12-15T05:25:28;8.00;63.40
33931;DHT22;20215;53.130;6.408;2022-12-15T05:28:12;8.00;63.50
33931;DHT22;20215;53.130;6.408;2022-12-15T05:30:56;8.00;63.80
33931;DHT22;20215;53.130;6.408;2022-12-15T05:33:40;8.00;63.90
33931;DHT22;20215;53.130;6.408;2022-12-15T05:36:06;8.10;64.00
33931;DHT22;20215;53.130;6.408;2022-12-15T05:38:32;8.10;64.10
33931;DHT22;20215;53.130;6.408;2022-12-15T05:40:58;8.10;64.00
33931;DHT22;20215;53.130;6.408;2022-12-15T05:43:24;8.10;63.90
33931;DHT22;20215;53.130;6.408;2022-12-15T05:45:51;8.20;64.10
33931;DHT22;20215;53.130;6.408;2022-12-15T05:48:16;8.20;64.30
33931;DHT22;20215;53.130;6.408;2022-12-15T05:50:42;8.30;64.50
33931;DHT22;20215;53.130;6.408;2022-12-15T05:53:07;8.30;64.60
33931;DHT22;20215;53.130;6.408;2022-12-15T05:55:33;8.40;64.80
33931;DHT22;20215;53.130;6.408;2022-12-15T05:57:58;8.50;64.90
33931;DHT22;20215;53.130;6.408;2022-12-15T06:00:25;8.50;65.10
33931;DHT22;20215;53.130;6.408;2022-12-15T06:02:51;8.60;65.10
33931;DHT22;20215;53.130;6.408;2022-12-15T06:05:16;8.70;65.20
33931;DHT22;20215;53.130;6.408;2022-12-15T06:07:42;8.70;65.30
33931;DHT22;20215;53.130;6.408;2022-12-15T06:10:08;8.80;65.50
33931;DHT22;20215;53.130;6.408;2022-12-15T06:12:33;8.90;65.60
33931;DHT22;20215;53.130;6.408;2022-12-15T06:14:59;9.00;65.80
33931;DHT22;20215;53.130;6.408;2022-12-15T06:17:25;9.00;65.80
33931;DHT22;20215;53.130;6.408;2022-12-15T06:19:50;9.10;66.00
33931;DHT22;20215;53.130;6.408;2022-12-15T06:22:16;9.10;66.00
33931;DHT22;20215;53.130;6.408;2022-12-15T06:24:41;9.20;65.90
33931;DHT22;20215;53.130;6.408;2022-12-15T06:27:07;9.20;65.80
33931;DHT22;20215;53.130;6.408;2022-12-15T06:29:33;9.30;65.80
33931;DHT22;20215;53.130;6.408;2022-12-15T06:31:59;9.30;65.70
33931;DHT22;20215;53.130;6.408;2022-12-15T06:34:25;9.30;65.50
33931;DHT22;20215;53.130;6.408;2022-12-15T06:36:51;9.40;65.30
33931;DHT22;20215;53.130;6.408;2022-12-15T06:39:16;9.30;65.30
33931;DHT22;20215;53.130;6.408;2022-12-15T06:41:42;9.30;65.20
33931;DHT22;20215;53.130;6.408;2022-12-15T06:44:12;9.30;65.20
33931;DHT22;20215;53.130;6.408;2022-12-15T06:46:38;9.30;65.20
33931;DHT22;20215;53.130;6.408;2022-12-15T06:49:03;9.40;65.30
33931;DHT22;20215;53.130;6.408;2022-12-15T06:51:29;9.30;65.20
33931;DHT22;20215;53.130;6.408;2022-12-15T06:53:55;9.30;65.20
33931;DHT22;20215;53.130;6.408;2022-12-15T06:56:26;9.30;65.10
33931;DHT22;20215;53.130;6.408;2022-12-15T06:58:52;9.30;65.10
33931;DHT22;20215;53.130;6.408;2022-12-15T07:01:20;9.30;65.10
33931;DHT22;20215;53.130;6.408;2022-12-15T07:03:46;9.30;65.00
33931;DHT22;20215;53.130;6.408;2022-12-15T07:06:13;9.30;65.10
33931;DHT22;20215;53.130;6.408;2022-12-15T07:08:40;9.30;64.90
33931;DHT22;20215;53.130;6.408;2022-12-15T07:11:07;9.30;65.00
33931;DHT22;20215;53.130;6.408;2022-12-15T07:13:34;9.30;64.90
33931;DHT22;20215;53.130;6.408;2022-12-15T07:16:00;9.30;64.70
33931;DHT22;20215;53.130;6.408;2022-12-15T07:18:27;9.30;64.60
33931;DHT22;20215;53.130;6.408;2022-12-15T07:20:54;9.30;64.80
33931;DHT22;20215;53.130;6.408;2022-12-15T07:23:19;9.30;64.90
33931;DHT22;20215;53.130;6.408;2022-12-15T07:25:45;9.30;64.80
33931;DHT22;20215;53.130;6.408;2022-12-15T07:28:11;9.30;65.40
33931;DHT22;20215;53.130;6.408;2022-12-15T07:30:37;9.30;64.70
33931;DHT22;20215;53.130;6.408;2022-12-15T07:33:02;9.20;64.70
33931;DHT22;20215;53.130;6.408;2022-12-15T07:35:28;9.20;64.60
33931;DHT22;20215;53.130;6.408;2022-12-15T07:37:54;9.30;64.70
33931;DHT22;20215;53.130;6.408;2022-12-15T07:40:20;9.20;64.70
33931;DHT22;20215;53.130;6.408;2022-12-15T07:42:45;9.20;64.60
33931;DHT22;20215;53.130;6.408;2022-12-15T07:45:12;9.20;64.50
33931;DHT22;20215;53.130;6.408;2022-12-15T07:47:38;9.10;64.50
33931;DHT22;20215;53.130;6.408;2022-12-15T07:50:04;9.10;64.70
33931;DHT22;20215;53.130;6.408;2022-12-15T07:52:30;9.10;64.40
33931;DHT22;20215;53.130;6.408;2022-12-15T07:54:56;9.10;64.50
33931;DHT22;20215;53.130;6.408;2022-12-15T07:57:21;9.10;64.40
33931;DHT22;20215;53.130;6.408;2022-12-15T07:59:48;9.00;64.40
33931;DHT22;20215;53.130;6.408;2022-12-15T08:02:14;9.00;64.40
33931;DHT22;20215;53.130;6.408;2022-12-15T08:04:40;9.00;64.60
33931;DHT22;20215;53.130;6.408;2022-12-15T08:07:06;9.00;64.40
33931;DHT22;20215;53.130;6.408;2022-12-15T08:09:33;9.00;64.60
33931;DHT22;20215;53.130;6.408;2022-12-15T08:11:59;9.00;64.30
33931;DHT22;20215;53.130;6.408;2022-12-15T08:14:25;9.00;64.30
33931;DHT22;20215;53.130;6.408;2022-12-15T08:16:53;9.00;64.50
33931;DHT22;20215;53.130;6.408;2022-12-15T08:19:18;9.00;64.40
33931;DHT22;20215;53.130;6.408;2022-12-15T08:21:44;8.90;64.30
33931;DHT22;20215;53.130;6.408;2022-12-15T08:24:11;8.90;64.40
33931;DHT22;20215;53.130;6.408;2022-12-15T08:26:40;8.90;64.40
33931;DHT22;20215;53.130;6.408;2022-12-15T08:29:07;9.00;64.50
33931;DHT22;20215;53.130;6.408;2022-12-15T08:31:34;9.00;64.50
33931;DHT22;20215;53.130;6.408;2022-12-15T08:34:01;8.90;64.50
33931;DHT22;20215;53.130;6.408;2022-12-15T08:36:27;8.90;64.40
33931;DHT22;20215;53.130;6.408;2022-12-15T08:38:56;8.90;64.30
33931;DHT22;20215;53.130;6.408;2022-12-15T08:41:24;8.90;64.40
33931;DHT22;20215;53.130;6.408;2022-12-15T08:43:51;8.90;64.40
33931;DHT22;20215;53.130;6.408;2022-12-15T08:46:21;8.80;64.50
33931;DHT22;20215;53.130;6.408;2022-12-15T08:48:47;8.90;64.50
33931;DHT22;20215;53.130;6.408;2022-12-15T08:51:13;8.80;64.50
33931;DHT22;20215;53.130;6.408;2022-12-15T08:53:39;8.80;65.10
33931;DHT22;20215;53.130;6.408;2022-12-15T08:56:25;8.90;64.60
33931;DHT22;20215;53.130;6.408;2022-12-15T08:58:58;8.90;64.60
33931;DHT22;20215;53.130;6.408;2022-12-15T09:01:25;8.80;64.60
33931;DHT22;20215;53.130;6.408;2022-12-15T09:03:51;8.90;64.60
33931;DHT22;20215;53.130;6.408;2022-12-15T09:06:20;8.90;64.60
33931;DHT22;20215;53.130;6.408;2022-12-15T09:08:46;8.90;64.80
33931;DHT22;20215;53.130;6.408;2022-12-15T09:11:12;8.90;64.60
33931;DHT22;20215;53.130;6.408;2022-12-15T09:13:38;8.90;64.60
33931;DHT22;20215;53.130;6.408;2022-12-15T09:16:07;8.90;64.50
33931;DHT22;20215;53.130;6.408;2022-12-15T09:18:33;8.90;64.30
33931;DHT22;20215;53.130;6.408;2022-12-15T09:21:04;8.90;64.30
33931;DHT22;20215;53.130;6.408;2022-12-15T09:23:30;8.80;64.20
33931;DHT22;20215;53.130;6.408;2022-12-15T09:26:00;8.80;64.20
33931;DHT22;20215;53.130;6.408;2022-12-15T09:28:27;8.70;64.30
33931;DHT22;20215;53.130;6.408;2022-12-15T09:30:52;8.70;64.50
33931;DHT22;20215;53.130;6.408;2022-12-15T09:33:18;8.70;64.40
33931;DHT22;20215;53.130;6.408;2022-12-15T09:35:50;8.70;64.50
33931;DHT22;20215;53.130;6.408;2022-12-15T09:38:16;8.70;64.40
33931;DHT22;20215;53.130;6.408;2022-12-15T09:40:41;8.70;64.40
33931;DHT22;20215;53.130;6.408;2022-12-15T09:43:12;8.70;64.40
33931;DHT22;20215;53.130;6.408;2022-12-15T09:45:43;8.80;64.70
33931;DHT22;20215;53.130;6.408;2022-12-15T09:48:13;8.70;64.60
33931;DHT22;20215;53.130;6.408;2022-12-15T09:50:43;8.80;64.50
33931;DHT22;20215;53.130;6.408;2022-12-15T09:53:14;8.80;64.60
33931;DHT22;20215;53.130;6.408;2022-12-15T09:55:42;8.80;64.70
33931;DHT22;20215;53.130;6.408;2022-12-15T09:58:39;8.80;64.50
33931;DHT22;20215;53.130;6.408;2022-12-15T10:01:30;8.80;64.50
33931;DHT22;20215;53.130;6.408;2022-12-15T10:09:24;8.80;64.60
33931;DHT22;20215;53.130;6.408;2022-12-15T10:12:08;8.80;64.60
33931;DHT22;20215;53.130;6.408;2022-12-15T10:15:06;8.80;64.70
33931;DHT22;20215;53.130;6.408;2022-12-15T10:17:44;8.90;64.90
33931;DHT22;20215;53.130;6.408;2022-12-15T10:20:24;8.90;64.90
33931;DHT22;20215;53.130;6.408;2022-12-15T10:22:51;8.80;64.80
33931;DHT22;20215;53.130;6.408;2022-12-15T10:31:02;8.90;65.00
33931;DHT22;20215;53.130;6.408;2022-12-15T10:33:41;8.90;64.90
33931;DHT22;20215;53.130;6.408;2022-12-15T10:36:13;8.90;65.00
33931;DHT22;20215;53.130;6.408;2022-12-15T10:38:40;8.90;64.90
33931;DHT22;20215;53.130;6.408;2022-12-15T10:41:10;8.90;64.90
33931;DHT22;20215;53.130;6.408;2022-12-15T10:43:41;8.90;64.90
33931;DHT22;20215;53.130;6.408;2022-12-15T10:46:14;9.00;64.90
33931;DHT22;20215;53.130;6.408;2022-12-15T10:48:45;8.90;64.90
33931;DHT22;20215;53.130;6.408;2022-12-15T10:51:20;8.90;64.90
33931;DHT22;20215;53.130;6.408;2022-12-15T10:53:51;8.90;64.70
33931;DHT22;20215;53.130;6.408;2022-12-15T10:56:20;9.00;64.80
33931;DHT22;20215;53.130;6.408;2022-12-15T10:58:54;9.00;64.90
33931;DHT22;20215;53.130;6.408;2022-12-15T11:01:26;9.00;65.00
33931;DHT22;20215;53.130;6.408;2022-12-15T11:03:52;9.00;65.10
33931;DHT22;20215;53.130;6.408;2022-12-15T11:08:46;9.00;64.90
33931;DHT22;20215;53.130;6.408;2022-12-15T11:11:33;9.00;64.90
33931;DHT22;20215;53.130;6.408;2022-12-15T11:14:20;9.00;65.00
33931;DHT22;20215;53.130;6.408;2022-12-15T11:16:58;9.00;65.00
33931;DHT22;20215;53.130;6.408;2022-12-15T11:22:15;9.00;65.00
33931;DHT22;20215;53.130;6.408;2022-12-15T11:24:48;9.00;65.00
33931;DHT22;20215;53.130;6.408;2022-12-15T11:27:26;9.00;65.30
33931;DHT22;20215;53.130;6.408;2022-12-15T11:33:09;9.10;65.40
33931;DHT22;20215;53.130;6.408;2022-12-15T11:41:37;9.10;65.50
33931;DHT22;20215;53.130;6.408;2022-12-15T11:44:29;9.00;65.30
33931;DHT22;20215;53.130;6.408;2022-12-15T11:52:34;9.00;65.50
33931;DHT22;20215;53.130;6.408;2022-12-15T11:58:03;9.10;65.80
33931;DHT22;20215;53.130;6.408;2022-12-15T12:00:38;9.10;65.80
33931;DHT22;20215;53.130;6.408;2022-12-15T12:08:52;9.20;65.90
33931;DHT22;20215;53.130;6.408;2022-12-15T12:11:27;9.10;65.80
33931;DHT22;20215;53.130;6.408;2022-12-15T12:14:05;9.10;65.80
33931;DHT22;20215;53.130;6.408;2022-12-15T12:16:48;9.20;66.00
33931;DHT22;20215;53.130;6.408;2022-12-15T12:19:30;9.20;65.80
33931;DHT22;20215;53.130;6.408;2022-12-15T12:22:08;9.20;65.90
33931;DHT22;20215;53.130;6.408;2022-12-15T12:24:40;9.20;65.70
33931;DHT22;20215;53.130;6.408;2022-12-15T12:27:51;9.20;65.80
33931;DHT22;20215;53.130;6.408;2022-12-15T12:30:20;9.30;65.80
33931;DHT22;20215;53.130;6.408;2022-12-15T12:33:03;9.30;66.00
33931;DHT22;20215;53.130;6.408;2022-12-15T12:35:47;9.30;65.90
33931;DHT22;20215;53.130;6.408;2022-12-15T12:38:19;9.40;65.90
33931;DHT22;20215;53.130;6.408;2022-12-15T12:43:51;9.50;65.80
33931;DHT22;20215;53.130;6.408;2022-12-15T12:46:32;9.50;65.90
33931;DHT22;20215;53.130;6.408;2022-12-15T12:51:40;9.60;65.70
33931;DHT22;20215;53.130;6.408;2022-12-15T12:56:57;9.60;65.60
33931;DHT22;20215;53.130;6.408;2022-12-15T13:04:49;9.60;65.50
33931;DHT22;20215;53.130;6.408;2022-12-15T13:07:36;9.60;65.60
33931;DHT22;20215;53.130;6.408;2022-12-15T13:12:34;9.60;65.80
33931;DHT22;20215;53.130;6.408;2022-12-15T13:15:09;9.60;66.00
33931;DHT22;20215;53.130;6.408;2022-12-15T13:17:40;9.60;65.90
33931;DHT22;20215;53.130;6.408;2022-12-15T13:20:22;9.60;65.90
33931;DHT22;20215;53.130;6.408;2022-12-15T13:22:48;9.60;65.90
33931;DHT22;20215;53.130;6.408;2022-12-15T13:25:32;9.60;65.90
33931;DHT22;20215;53.130;6.408;2022-12-15T13:27:59;9.60;65.90
33931;DHT22;20215;53.130;6.408;2022-12-15T13:30:25;9.60;65.80
33931;DHT22;20215;53.130;6.408;2022-12-15T13:33:13;9.60;65.90
33931;DHT22;20215;53.130;6.408;2022-12-15T13:35:40;9.60;66.40
33931;DHT22;20215;53.130;6.408;2022-12-15T13:38:16;9.60;66.00
33931;DHT22;20215;53.130;6.408;2022-12-15T13:45:54;9.60;66.10
33931;DHT22;20215;53.130;6.408;2022-12-15T13:48:33;9.50;66.20
33931;DHT22;20215;53.130;6.408;2022-12-15T13:51:11;9.50;66.30
33931;DHT22;20215;53.130;6.408;2022-12-15T13:54:14;9.50;66.40
33931;DHT22;20215;53.130;6.408;2022-12-15T13:59:40;9.50;66.30
33931;DHT22;20215;53.130;6.408;2022-12-15T14:02:31;9.50;66.40
33931;DHT22;20215;53.130;6.408;2022-12-15T14:07:28;9.50;66.60
33931;DHT22;20215;53.130;6.408;2022-12-15T14:09:54;9.40;66.60
33931;DHT22;20215;53.130;6.408;2022-12-15T14:12:19;9.40;66.60
33931;DHT22;20215;53.130;6.408;2022-12-15T14:14:46;9.40;66.60
33931;DHT22;20215;53.130;6.408;2022-12-15T14:17:15;9.40;66.70
33931;DHT22;20215;53.130;6.408;2022-12-15T14:19:46;9.40;66.70
33931;DHT22;20215;53.130;6.408;2022-12-15T14:24:49;9.40;66.80
33931;DHT22;20215;53.130;6.408;2022-12-15T14:27:23;9.50;67.40
33931;DHT22;20215;53.130;6.408;2022-12-15T14:29:49;9.40;66.80
33931;DHT22;20215;53.130;6.408;2022-12-15T14:32:32;9.40;66.70
33931;DHT22;20215;53.130;6.408;2022-12-15T14:34:58;9.40;66.80
33931;DHT22;20215;53.130;6.408;2022-12-15T14:37:24;9.40;66.90
33931;DHT22;20215;53.130;6.408;2022-12-15T14:39:51;9.40;66.90
33931;DHT22;20215;53.130;6.408;2022-12-15T14:42:20;9.40;66.90
33931;DHT22;20215;53.130;6.408;2022-12-15T14:44:47;9.50;66.80
33931;DHT22;20215;53.130;6.408;2022-12-15T14:47:22;9.50;66.80
33931;DHT22;20215;53.130;6.408;2022-12-15T14:49:51;9.50;66.80
33931;DHT22;20215;53.130;6.408;2022-12-15T14:52:37;9.50;66.80
33931;DHT22;20215;53.130;6.408;2022-12-15T14:57:54;9.50;66.80
33931;DHT22;20215;53.130;6.408;2022-12-15T15:00:32;9.50;66.80
33931;DHT22;20215;53.130;6.408;2022-12-15T15:05:43;9.50;66.90
33931;DHT22;20215;53.130;6.408;2022-12-15T15:09:15;9.50;67.00
33931;DHT22;20215;53.130;6.408;2022-12-15T15:11:28;9.60;67.00
33931;DHT22;20215;53.130;6.408;2022-12-15T15:13:56;9.60;67.10
33931;DHT22;20215;53.130;6.408;2022-12-15T15:16:22;9.60;67.10
33931;DHT22;20215;53.130;6.408;2022-12-15T15:18:54;9.60;67.20
33931;DHT22;20215;53.130;6.408;2022-12-15T15:21:25;9.60;67.30
33931;DHT22;20215;53.130;6.408;2022-12-15T15:26:25;9.60;67.40
33931;DHT22;20215;53.130;6.408;2022-12-15T15:28:51;9.60;67.40
33931;DHT22;20215;53.130;6.408;2022-12-15T15:33:55;9.60;68.10
33931;DHT22;20215;53.130;6.408;2022-12-15T15:36:31;9.70;67.70
33931;DHT22;20215;53.130;6.408;2022-12-15T15:38:58;9.60;67.70
33931;DHT22;20215;53.130;6.408;2022-12-15T15:41:31;9.70;67.70
33931;DHT22;20215;53.130;6.408;2022-12-15T15:43:59;9.60;67.70
33931;DHT22;20215;53.130;6.408;2022-12-15T15:46:28;9.60;67.60
33931;DHT22;20215;53.130;6.408;2022-12-15T15:49:02;9.70;67.80
33931;DHT22;20215;53.130;6.408;2022-12-15T15:51:31;9.70;67.70
33931;DHT22;20215;53.130;6.408;2022-12-15T15:53:59;9.60;67.70
33931;DHT22;20215;53.130;6.408;2022-12-15T15:56:27;9.60;67.80
33931;DHT22;20215;53.130;6.408;2022-12-15T15:58:55;9.70;67.90
33931;DHT22;20215;53.130;6.408;2022-12-15T16:01:21;9.60;67.90
33931;DHT22;20215;53.130;6.408;2022-12-15T16:03:47;9.70;68.00
33931;DHT22;20215;53.130;6.408;2022-12-15T16:06:17;9.60;68.10
33931;DHT22;20215;53.130;6.408;2022-12-15T16:08:44;9.60;68.10
33931;DHT22;20215;53.130;6.408;2022-12-15T16:11:10;9.60;68.20
33931;DHT22;20215;53.130;6.408;2022-12-15T16:13:36;9.60;68.10
33931;DHT22;20215;53.130;6.408;2022-12-15T16:16:03;9.60;68.10
33931;DHT22;20215;53.130;6.408;2022-12-15T16:18:28;9.60;68.30
33931;DHT22;20215;53.130;6.408;2022-12-15T16:20:54;9.60;68.30
33931;DHT22;20215;53.130;6.408;2022-12-15T16:23:22;9.60;68.30
33931;DHT22;20215;53.130;6.408;2022-12-15T16:25:54;9.60;68.30
33931;DHT22;20215;53.130;6.408;2022-12-15T16:28:22;9.70;68.30
33931;DHT22;20215;53.130;6.408;2022-12-15T16:30:48;9.60;68.30
33931;DHT22;20215;53.130;6.408;2022-12-15T16:33:14;9.70;68.40
33931;DHT22;20215;53.130;6.408;2022-12-15T16:35:41;9.60;68.40
33931;DHT22;20215;53.130;6.408;2022-12-15T16:38:20;9.70;68.30
33931;DHT22;20215;53.130;6.408;2022-12-15T16:40:47;9.60;68.20
33931;DHT22;20215;53.130;6.408;2022-12-15T16:43:20;9.70;68.40
33931;DHT22;20215;53.130;6.408;2022-12-15T16:45:48;9.60;68.40
33931;DHT22;20215;53.130;6.408;2022-12-15T16:48:15;9.70;68.50
33931;DHT22;20215;53.130;6.408;2022-12-15T16:50:49;9.70;68.30
33931;DHT22;20215;53.130;6.408;2022-12-15T16:53:17;9.70;68.40
33931;DHT22;20215;53.130;6.408;2022-12-15T16:55:43;9.70;68.30
33931;DHT22;20215;53.130;6.408;2022-12-15T16:58:12;9.70;68.40
33931;DHT22;20215;53.130;6.408;2022-12-15T17:00:43;9.70;68.40
33931;DHT22;20215;53.130;6.408;2022-12-15T17:03:13;9.70;68.30
33931;DHT22;20215;53.130;6.408;2022-12-15T17:05:39;9.60;68.50
33931;DHT22;20215;53.130;6.408;2022-12-15T17:08:06;9.60;68.50
33931;DHT22;20215;53.130;6.408;2022-12-15T17:10:34;9.60;68.30
33931;DHT22;20215;53.130;6.408;2022-12-15T17:13:18;9.60;68.50
33931;DHT22;20215;53.130;6.408;2022-12-15T17:15:44;9.60;68.60
33931;DHT22;20215;53.130;6.408;2022-12-15T17:18:12;9.60;68.60
33931;DHT22;20215;53.130;6.408;2022-12-15T17:20:37;9.60;68.70
33931;DHT22;20215;53.130;6.408;2022-12-15T17:23:15;9.70;68.80
33931;DHT22;20215;53.130;6.408;2022-12-15T17:25:44;9.70;68.60
33931;DHT22;20215;53.130;6.408;2022-12-15T17:28:25;9.70;68.50
33931;DHT22;20215;53.130;6.408;2022-12-15T17:30:58;9.70;68.40
33931;DHT22;20215;53.130;6.408;2022-12-15T17:33:28;9.70;68.70
33931;DHT22;20215;53.130;6.408;2022-12-15T17:35:59;9.70;68.50
33931;DHT22;20215;53.130;6.408;2022-12-15T17:38:26;9.70;68.60
33931;DHT22;20215;53.130;6.408;2022-12-15T17:40:52;9.70;68.70
33931;DHT22;20215;53.130;6.408;2022-12-15T17:43:22;9.70;68.80
33931;DHT22;20215;53.130;6.408;2022-12-15T17:45:48;9.70;68.80
33931;DHT22;20215;53.130;6.408;2022-12-15T17:48:21;9.70;68.80
33931;DHT22;20215;53.130;6.408;2022-12-15T17:50:47;9.70;68.80
33931;DHT22;20215;53.130;6.408;2022-12-15T17:53:15;9.80;69.30
33931;DHT22;20215;53.130;6.408;2022-12-15T17:55:43;9.80;69.30